Map

Track Data

SID SEASON NUMBER BASIN SUBBASIN NAME ISO_TIME NATURE LAT LON WMO_WIND WMO_PRES WMO_AGENCY TRACK_TYPE DIST2LAND LANDFALL IFLAG USA_AGENCY USA_ATCF_ID USA_LAT USA_LON USA_RECORD USA_STATUS USA_WIND USA_PRES USA_SSHS USA_R34_NE USA_R34_SE USA_R34_SW USA_R34_NW USA_R50_NE USA_R50_SE USA_R50_SW USA_R50_NW USA_R64_NE USA_R64_SE USA_R64_SW USA_R64_NW USA_POCI USA_ROCI USA_RMW USA_EYE TOKYO_LAT TOKYO_LON TOKYO_GRADE TOKYO_WIND TOKYO_PRES TOKYO_R50_DIR TOKYO_R50_LONG TOKYO_R50_SHORT TOKYO_R30_DIR TOKYO_R30_LONG TOKYO_R30_SHORT TOKYO_LAND CMA_LAT CMA_LON CMA_CAT CMA_WIND CMA_PRES HKO_LAT HKO_LON HKO_CAT HKO_WIND HKO_PRES NEWDELHI_LAT NEWDELHI_LON NEWDELHI_GRADE NEWDELHI_WIND NEWDELHI_PRES NEWDELHI_CI NEWDELHI_DP NEWDELHI_POCI REUNION_LAT REUNION_LON REUNION_TYPE REUNION_WIND REUNION_PRES REUNION_TNUM REUNION_CI REUNION_RMW REUNION_R34_NE REUNION_R34_SE REUNION_R34_SW REUNION_R34_NW REUNION_R50_NE REUNION_R50_SE REUNION_R50_SW REUNION_R50_NW REUNION_R64_NE REUNION_R64_SE REUNION_R64_SW REUNION_R64_NW BOM_LAT BOM_LON BOM_TYPE BOM_WIND BOM_PRES BOM_TNUM BOM_CI BOM_RMW BOM_R34_NE BOM_R34_SE BOM_R34_SW BOM_R34_NW BOM_R50_NE BOM_R50_SE BOM_R50_SW BOM_R50_NW BOM_R64_NE BOM_R64_SE BOM_R64_SW BOM_R64_NW BOM_ROCI BOM_POCI BOM_EYE BOM_POS_METHOD BOM_PRES_METHOD NADI_LAT NADI_LON NADI_CAT NADI_WIND NADI_PRES WELLINGTON_LAT WELLINGTON_LON WELLINGTON_WIND WELLINGTON_PRES DS824_LAT DS824_LON DS824_STAGE DS824_WIND DS824_PRES TD9636_LAT TD9636_LON TD9636_STAGE TD9636_WIND TD9636_PRES TD9635_LAT TD9635_LON TD9635_WIND TD9635_PRES TD9635_ROCI NEUMANN_LAT NEUMANN_LON NEUMANN_CLASS NEUMANN_WIND NEUMANN_PRES MLC_LAT MLC_LON MLC_CLASS MLC_WIND MLC_PRES USA_GUST BOM_GUST BOM_GUST_PER REUNION_GUST REUNION_GUST_PER USA_SEAHGT USA_SEARAD_NE USA_SEARAD_SE USA_SEARAD_SW USA_SEARAD_NW STORM_SPEED STORM_DIR
1877039S19059 1877 4 SI MM NOT_NAMED 1877-02-07 18:00:00 NR -18.7000 58.8000 main 194 160 __________O___ -1 -18.7000 58.8000 7 10 0
1877039S19059 1877 4 SI MM NOT_NAMED 1877-02-07 21:00:00 NR -19.1719 58.8233 main 152 127 __________P___ -1 -19.1719 58.8233 7 9 177
1877039S19059 1877 4 SI MM NOT_NAMED 1877-02-08 00:00:00 NR -19.6150 58.8474 main 127 119 __________P___ -1 -19.6150 58.8474 7 8 177
1877039S19059 1877 4 SI MM NOT_NAMED 1877-02-08 03:00:00 NR -20.0007 58.8727 main 119 114 __________P___ -1 -20.0007 58.8727 7 7 175
1877039S19059 1877 4 SI MM NOT_NAMED 1877-02-08 06:00:00 NR -20.3000 58.9000 main 114 114 __________O___ -1 -20.3000 58.9000 7 5 173
1877039S19059 1877 4 SI MM NOT_NAMED 1877-02-08 09:00:00 NR -20.4959 58.9291 main 116 116 __________P___ -1 -20.4959 58.9291 7 3 171
1877039S19059 1877 4 SI MM NOT_NAMED 1877-02-08 12:00:00 NR -20.6175 58.9576 main 129 129 __________P___ -1 -20.6175 58.9576 7 2 165
1877039S19059 1877 4 SI MM NOT_NAMED 1877-02-08 15:00:00 NR -20.7053 58.9822 main 132 132 __________P___ -1 -20.7053 58.9822 7 2 170
1877039S19059 1877 4 SI MM NOT_NAMED 1877-02-08 18:00:00 NR -20.8000 59.0000 main 136 136 __________O___ -1 -20.8000 59.0000 7 3 0
1877039S19059 1877 4 SI MM NOT_NAMED 1877-02-08 21:00:00 NR -20.9566 59.0072 main 146 146 __________P___ -1 -20.9566 59.0072 7 3 175
1877039S19059 1877 4 SI MM NOT_NAMED 1877-02-09 00:00:00 NR -21.1275 59.0075 main 150 150 __________P___ -1 -21.1275 59.0075 7 4 184
1877039S19059 1877 4 SI MM NOT_NAMED 1877-02-09 03:00:00 NR -21.3097 59.0041 main 161 161 __________P___ -1 -21.3097 59.0041 7 4 184
1877039S19059 1877 4 SI MM NOT_NAMED 1877-02-09 06:00:00 NR -21.5000 59.0000 main 175 175 __________O___ -1 -21.5000 59.0000 7 4 183
1877039S19059 1877 4 SI MM NOT_NAMED 1877-02-09 09:00:00 NR -21.6969 59.0000 main 190 190 __________P___ -1 -21.6969 59.0000 7 4 0
1877039S19059 1877 4 SI MM NOT_NAMED 1877-02-09 12:00:00 NR -21.9000 59.0000 main 206 206 __________P___ -1 -21.9000 59.0000 7 4 0
1877039S19059 1877 4 SI MM NOT_NAMED 1877-02-09 15:00:00 NR -22.1031 59.0000 main 223 223 __________P___ -1 -22.1031 59.0000 7 4 0
1877039S19059 1877 4 SI MM NOT_NAMED 1877-02-09 18:00:00 NR -22.3000 59.0000 main 242 242 __________O___ -1 -22.3000 59.0000 7 4 0
1877039S19059 1877 4 SI MM NOT_NAMED 1877-02-09 21:00:00 NR -22.4578 58.9960 main 260 260 __________P___ -1 -22.4578 58.9960 7 3 0
1877039S19059 1877 4 SI MM NOT_NAMED 1877-02-10 00:00:00 NR -22.6125 58.9926 main 270 270 __________P___ -1 -22.6125 58.9926 7 3 183
1877039S19059 1877 4 SI MM NOT_NAMED 1877-02-10 03:00:00 NR -22.7859 58.9929 main 290 290 __________P___ -1 -22.7859 58.9929 7 4 178
1877039S19059 1877 4 SI MM NOT_NAMED 1877-02-10 06:00:00 NR -23.0000 59.0000 main 310 310 __________O___ -1 -23.0000 59.0000 7 5 179
1877039S19059 1877 4 SI MM NOT_NAMED 1877-02-10 09:00:00 NR -23.2941 59.0177 main 340 340 __________P___ -1 -23.2941 59.0177 7 6 176
1877039S19059 1877 4 SI MM NOT_NAMED 1877-02-10 12:00:00 NR -23.6275 59.0424 main 371 371 __________P___ -1 -23.6275 59.0424 7 7 175
1877039S19059 1877 4 SI MM NOT_NAMED 1877-02-10 15:00:00 NR -23.9722 59.0709 main 416 416 __________P___ -1 -23.9722 59.0709 7 7 175
1877039S19059 1877 4 SI MM NOT_NAMED 1877-02-10 18:00:00 NR -24.3000 59.1000 main 448 448 __________O___ -1 -24.3000 59.1000 7 6 177
1877039S19059 1877 4 SI MM NOT_NAMED 1877-02-10 21:00:00 NR -24.5431 59.1211 main 469 469 __________P___ -1 -24.5431 59.1211 7 5 175
1877039S19059 1877 4 SI MM NOT_NAMED 1877-02-11 00:00:00 NR -24.7700 59.1428 main 501 501 __________P___ -1 -24.7700 59.1428 7 5 176
1877039S19059 1877 4 SI MM NOT_NAMED 1877-02-11 03:00:00 NR -25.0119 59.1680 main 525 525 __________P___ -1 -25.0119 59.1680 7 5 175
1877039S19059 1877 4 SI MM NOT_NAMED 1877-02-11 06:00:00 NR -25.3000 59.2000 main 558 558 __________O___ -1 -25.3000 59.2000 7 7 174
1877039S19059 1877 4 SI MM NOT_NAMED 1877-02-11 09:00:00 NR -25.6747 59.2388 main 601 601 __________P___ -1 -25.6747 59.2388 7 8 175
1877039S19059 1877 4 SI MM NOT_NAMED 1877-02-11 12:00:00 NR -26.0975 59.2851 main 643 643 __________P___ -1 -26.0975 59.2851 7 9 174
1877039S19059 1877 4 SI MM NOT_NAMED 1877-02-11 15:00:00 NR -26.5466 59.3388 main 681 681 __________P___ -1 -26.5466 59.3388 7 9 174
1877039S19059 1877 4 SI MM NOT_NAMED 1877-02-11 18:00:00 NR -27.0000 59.4000 main 734 734 __________O___ -1 -27.0000 59.4000 7 9 173
1877039S19059 1877 4 SI MM NOT_NAMED 1877-02-11 21:00:00 NR -27.3965 59.4562 main 777 777 __________P___ -1 -27.3965 59.4562 7 8 173
1877039S19059 1877 4 SI MM NOT_NAMED 1877-02-12 00:00:00 NR -27.7975 59.5210 main 816 816 __________P___ -1 -27.7975 59.5210 7 8 171
1877039S19059 1877 4 SI MM NOT_NAMED 1877-02-12 03:00:00 NR -28.2246 59.6002 main 860 860 __________P___ -1 -28.2246 59.6002 7 9 170
1877039S19059 1877 4 SI MM NOT_NAMED 1877-02-12 06:00:00 NR -28.7000 59.7000 main 913 913 __________O___ -1 -28.7000 59.7000 7 11 169
1877039S19059 1877 4 SI MM NOT_NAMED 1877-02-12 09:00:00 NR -29.2862 59.8238 main 977 977 __________P___ -1 -29.2862 59.8238 7 12 169
1877039S19059 1877 4 SI MM NOT_NAMED 1877-02-12 12:00:00 NR -29.9150 59.9692 main 1046 1046 __________P___ -1 -29.9150 59.9692 7 13 168
1877039S19059 1877 4 SI MM NOT_NAMED 1877-02-12 15:00:00 NR -30.5363 60.1301 main 1111 1111 __________P___ -1 -30.5363 60.1301 7 12 166
1877039S19059 1877 4 SI MM NOT_NAMED 1877-02-12 18:00:00 NR -31.1000 60.3000 main 1179 1179 __________O___ -1 -31.1000 60.3000 7 11 164
1877039S19059 1877 4 SI MM NOT_NAMED 1877-02-12 21:00:00 NR -31.5691 60.4729 main 1238 1238 __________P___ -1 -31.5691 60.4729 7 9 161
1877039S19059 1877 4 SI MM NOT_NAMED 1877-02-13 00:00:00 NR -31.9575 60.6474 main 1283 1283 __________P___ -1 -31.9575 60.6474 7 8 158
1877039S19059 1877 4 SI MM NOT_NAMED 1877-02-13 03:00:00 NR -32.2923 60.8231 main 1321 1321 __________P___ -1 -32.2923 60.8231 7 7 155
1877039S19059 1877 4 SI MM NOT_NAMED 1877-02-13 06:00:00 NR -32.6000 61.0000 main 1359 __________O___ -1 -32.6000 61.0000 7 7 155

About IBTrACS Database

This database is a web-friendly format of International Best Track Archive for Climate Stewardship (IBTrACS), a global best track data archive curated by NOAA dating back to 1842.

Updated: 2021-10-08